Terminal Aerodrome Forecast
Issued by NWS Pocatello, ID

Home | Current Version | Previous Version | Text Only | Print | Product List | Glossary On
Versions: 1 2 3 4 5 6 7 8 9 10 11 12 13 14 15 16 17
781
FTUS45 KPIH 191120
TAFPIH
TAF
KPIH 191120Z 1912/2012 35004KT 3SM -SN BR BKN018 OVC040
      WS008/16030KT
     FM191400 18011G21KT 3SM -SHSN BR BKN015 OVC030
     FM191700 21011KT 1SM -SN BR BKN008 OVC015
     FM192100 24011KT 5SM -SHSN BR BKN010 OVC020
     FM200300 24006KT P6SM VCSH OVC012=

USA.gov is the U.S. government's official web portal to all federal, state and local government web resources and services.